createdAt,value
2022-09-09T00:02:02.870Z,78.52
2022-09-09T00:04:33.334Z,78.16
2022-09-09T00:07:49.542Z,78.05
2022-09-09T00:10:40.404Z,78.23
2022-09-09T00:13:34.263Z,78.17
2022-09-09T00:16:10.623Z,78.25
2022-09-09T00:19:02.169Z,78.01
2022-09-09T00:21:39.648Z,77.89
2022-09-09T00:24:27.717Z,77.85
2022-09-09T00:27:02.595Z,78.32
2022-09-09T00:30:13.178Z,78.25
2022-09-09T00:32:40.259Z,78.42
2022-09-09T00:35:26.118Z,78.45
2022-09-09T00:37:59.160Z,78.91
2022-09-09T00:40:32.862Z,79.47
2022-09-09T00:43:32.373Z,79.33
2022-09-09T00:46:19.142Z,78.85
2022-09-09T00:49:16.494Z,78.10
2022-09-09T00:52:09.007Z,77.45
2022-09-09T00:55:02.880Z,78.06
2022-09-09T00:57:33.378Z,78.83
2022-09-09T01:00:26.325Z,78.98
2022-09-09T01:03:37.423Z,79.09
2022-09-09T01:06:35.025Z,78.68
2022-09-09T01:09:39.215Z,78.97
2022-09-09T01:12:13.280Z,79.20
2022-09-09T01:14:53.095Z,79.32
2022-09-09T01:17:32.226Z,79.78
2022-09-09T01:20:11.667Z,79.39
2022-09-09T01:23:28.083Z,79.44
2022-09-09T01:26:20.545Z,79.58
2022-09-09T01:28:50.651Z,79.11
2022-09-09T01:31:53.282Z,79.17
2022-09-09T01:34:21.597Z,78.55
2022-09-09T01:37:01.434Z,78.74
2022-09-09T01:39:28.580Z,78.66
2022-09-09T01:41:56.994Z,78.67
2022-09-09T01:44:25.519Z,79.14
2022-09-09T01:46:52.430Z,79.02
2022-09-09T01:49:19.850Z,79.11
2022-09-09T01:51:53.421Z,79.01
2022-09-09T01:54:23.137Z,78.97
2022-09-09T01:57:17.129Z,78.91
2022-09-09T02:00:09.059Z,78.90
2022-09-09T02:03:02.054Z,78.59
2022-09-09T02:05:38.796Z,78.68
2022-09-09T02:08:14.024Z,78.79
2022-09-09T02:10:49.116Z,78.82
2022-09-09T02:13:19.814Z,79.16
2022-09-09T02:16:05.730Z,78.70
2022-09-09T02:18:52.486Z,78.85
2022-09-09T02:21:19.763Z,78.89
2022-09-09T02:23:48.762Z,79.20
2022-09-09T02:26:21.202Z,79.45
2022-09-09T02:28:50.598Z,80.56
2022-09-09T02:31:23.370Z,80.21
2022-09-09T02:33:57.175Z,79.97
2022-09-09T02:36:27.884Z,79.90
2022-09-09T02:38:55.398Z,80.24
2022-09-09T02:41:28.811Z,80.07
2022-09-09T02:43:55.591Z,80.05
2022-09-09T02:46:39.445Z,79.86
2022-09-09T02:49:44.760Z,79.80
2022-09-09T02:52:17.209Z,80.01
2022-09-09T02:54:44.477Z,79.74
2022-09-09T02:57:22.611Z,79.68
2022-09-09T02:59:50.933Z,78.72
2022-09-09T03:02:17.763Z,78.60
2022-09-09T03:04:45.426Z,79.24
2022-09-09T03:07:13.079Z,80.08
2022-09-09T03:09:39.850Z,80.12
2022-09-09T03:12:08.016Z,80.02
2022-09-09T03:14:34.753Z,80.21
2022-09-09T03:17:03.263Z,79.93
2022-09-09T03:19:30.899Z,79.75
2022-09-09T03:21:59.074Z,80.15
2022-09-09T03:24:26.578Z,80.06
2022-09-09T03:26:53.531Z,79.78
2022-09-09T03:29:20.290Z,79.73
2022-09-09T03:31:47.190Z,80.39
2022-09-09T03:34:14.690Z,80.37
2022-09-09T03:36:42.171Z,80.78
2022-09-09T03:39:09.007Z,80.64
2022-09-09T03:41:35.809Z,81.30
2022-09-09T03:44:02.858Z,81.13
2022-09-09T03:46:29.610Z,80.71
2022-09-09T03:48:56.420Z,81.13
2022-09-09T03:51:23.225Z,81.15
2022-09-09T03:53:50.083Z,81.14
2022-09-09T03:56:16.881Z,80.79
2022-09-09T03:58:43.635Z,81.97
2022-09-09T04:01:17.359Z,81.85
2022-09-09T04:03:45.594Z,81.14
2022-09-09T04:06:15.445Z,81.90
2022-09-09T04:08:42.680Z,81.81
2022-09-09T04:11:09.600Z,81.46
2022-09-09T04:13:39.927Z,80.88
2022-09-09T04:16:07.983Z,80.82
2022-09-09T04:18:35.967Z,82.59
2022-09-09T04:21:04.584Z,81.36
2022-09-09T04:23:31.678Z,80.73
2022-09-09T04:26:00.258Z,80.99
2022-09-09T04:28:30.762Z,80.80
2022-09-09T04:30:58.486Z,81.15
2022-09-09T04:33:28.941Z,80.85
2022-09-09T04:35:55.895Z,80.35
2022-09-09T04:38:23.923Z,80.40
2022-09-09T04:40:52.793Z,80.70
2022-09-09T04:43:19.919Z,80.37
2022-09-09T04:45:50.239Z,80.13
2022-09-09T04:48:17.051Z,80.78
2022-09-09T04:50:43.874Z,81.53
2022-09-09T04:53:10.835Z,81.60
2022-09-09T04:55:37.597Z,81.05
2022-09-09T04:58:09.308Z,81.33
2022-09-09T05:00:37.138Z,81.29
2022-09-09T05:03:06.478Z,81.19
2022-09-09T05:05:35.109Z,81.33
2022-09-09T05:08:09.936Z,81.28
2022-09-09T05:10:39.331Z,80.82
2022-09-09T05:13:07.521Z,80.90
2022-09-09T05:15:34.456Z,81.24
2022-09-09T05:18:03.333Z,80.94
2022-09-09T05:20:30.530Z,80.50
2022-09-09T05:22:57.987Z,80.53
2022-09-09T05:25:26.927Z,80.59
2022-09-09T05:27:54.735Z,81.17
2022-09-09T05:30:23.636Z,80.79
2022-09-09T05:32:51.040Z,80.99
2022-09-09T05:35:19.938Z,80.96
2022-09-09T05:37:47.004Z,80.69
2022-09-09T05:40:14.027Z,80.65
2022-09-09T05:42:41.694Z,80.71
2022-09-09T05:45:10.335Z,81.30
2022-09-09T05:47:38.209Z,80.50
2022-09-09T05:50:06.048Z,79.40
2022-09-09T05:52:33.599Z,79.62
2022-09-09T05:55:00.660Z,80.53
2022-09-09T05:57:27.679Z,78.48
2022-09-09T05:59:54.614Z,76.96
2022-09-09T06:02:21.718Z,78.73
2022-09-09T06:04:48.592Z,79.04
2022-09-09T06:07:15.556Z,79.89
2022-09-09T06:09:42.397Z,79.33
2022-09-09T06:12:09.864Z,79.62
2022-09-09T06:14:37.727Z,79.43
2022-09-09T06:17:04.737Z,79.48
2022-09-09T06:19:31.751Z,78.85
2022-09-09T06:21:59.471Z,79.06
2022-09-09T06:24:27.139Z,79.31
2022-09-09T06:26:54.967Z,79.87
2022-09-09T06:29:21.747Z,79.52
2022-09-09T06:31:48.779Z,79.62
2022-09-09T06:34:16.143Z,79.42
2022-09-09T06:36:43.467Z,79.05
2022-09-09T06:39:14.791Z,79.09
2022-09-09T06:41:43.308Z,78.92
2022-09-09T06:44:12.703Z,78.98
2022-09-09T06:46:40.497Z,79.19
2022-09-09T06:49:08.858Z,79.63
2022-09-09T06:51:43.397Z,79.51
2022-09-09T06:54:12.119Z,78.42
2022-09-09T06:56:44.470Z,78.71
2022-09-09T06:59:12.996Z,78.08
2022-09-09T07:01:42.717Z,78.58
2022-09-09T07:04:11.766Z,77.03
2022-09-09T07:06:44.072Z,77.95
2022-09-09T07:09:14.051Z,78.16
2022-09-09T07:11:44.414Z,77.68
2022-09-09T07:14:15.387Z,77.66
2022-09-09T07:16:45.710Z,77.86
2022-09-09T07:19:15.012Z,77.15
2022-09-09T07:21:42.083Z,77.10
2022-09-09T07:24:11.066Z,77.32
2022-09-09T07:26:40.266Z,76.75
2022-09-09T07:29:07.615Z,76.66
2022-09-09T07:31:38.126Z,77.33
2022-09-09T07:34:05.853Z,76.50
2022-09-09T07:36:40.899Z,76.95
2022-09-09T07:39:18.247Z,77.20
2022-09-09T07:41:48.732Z,77.19
2022-09-09T07:44:22.723Z,76.98
2022-09-09T07:46:50.126Z,77.38
2022-09-09T07:49:16.975Z,76.71
2022-09-09T07:51:48.239Z,76.44
2022-09-09T07:54:18.331Z,76.86
2022-09-09T07:56:45.179Z,76.97
2022-09-09T07:59:12.976Z,76.35
2022-09-09T08:01:51.106Z,76.92
2022-09-09T08:04:20.669Z,77.24
2022-09-09T08:06:52.883Z,76.18
2022-09-09T08:09:21.378Z,77.08
2022-09-09T08:11:48.892Z,76.49
2022-09-09T08:14:16.006Z,74.94
2022-09-09T08:16:48.921Z,75.29
2022-09-09T08:19:16.411Z,74.88
2022-09-09T08:21:45.312Z,73.98
2022-09-09T08:24:15.957Z,74.04
2022-09-09T08:26:45.976Z,73.93
2022-09-09T08:29:14.774Z,74.21
2022-09-09T08:31:52.086Z,73.19
2022-09-09T08:34:20.899Z,74.32
2022-09-09T08:36:49.907Z,73.85
2022-09-09T08:39:20.745Z,74.57
2022-09-09T08:41:53.268Z,74.74
2022-09-09T08:45:01.457Z,74.48
2022-09-09T08:48:15.335Z,74.44
2022-09-09T08:50:44.298Z,73.47
2022-09-09T08:53:39.328Z,72.51
2022-09-09T08:56:18.794Z,72.06
2022-09-09T08:58:50.570Z,71.32
2022-09-09T09:01:41.327Z,72.08
2022-09-09T09:04:39.599Z,70.90
2022-09-09T09:07:33.050Z,70.08
2022-09-09T09:10:42.302Z,70.20
2022-09-09T09:13:22.054Z,68.74
2022-09-09T09:15:59.617Z,68.04
2022-09-09T09:18:27.172Z,68.42
2022-09-09T09:21:11.478Z,68.69
2022-09-09T09:23:59.644Z,70.06
2022-09-09T09:26:39.566Z,71.14
2022-09-09T09:29:15.956Z,70.64
2022-09-09T09:31:56.755Z,69.49
2022-09-09T09:34:25.312Z,70.23
2022-09-09T09:37:02.688Z,69.85
2022-09-09T09:42:26.442Z,68.71
2022-09-09T09:44:53.349Z,68.96
2022-09-09T09:47:22.807Z,68.27
2022-09-09T09:50:00.675Z,68.07
2022-09-09T09:52:33.194Z,66.99
2022-09-09T09:55:07.751Z,66.97
2022-09-09T09:57:35.323Z,66.05
2022-09-09T10:00:14.426Z,66.48
2022-09-09T10:02:44.539Z,66.64
2022-09-09T10:05:26.744Z,66.22
2022-09-09T10:08:04.359Z,66.80
2022-09-09T10:11:00.699Z,66.20
2022-09-09T10:13:39.970Z,64.79
2022-09-09T10:16:24.661Z,66.36
2022-09-09T10:19:28.090Z,64.41
2022-09-09T10:22:08.924Z,65.51
2022-09-09T10:24:51.083Z,65.73
2022-09-09T10:27:36.601Z,66.58
2022-09-09T10:30:50.251Z,66.27
2022-09-09T10:33:59.369Z,66.21
2022-09-09T10:36:27.145Z,66.53
2022-09-09T10:39:07.658Z,67.01
2022-09-09T10:41:37.090Z,66.28
2022-09-09T10:44:12.563Z,65.61
2022-09-09T10:47:09.986Z,65.51
2022-09-09T10:50:19.654Z,65.21
2022-09-09T10:53:24.720Z,64.61
2022-09-09T10:56:10.144Z,63.49
2022-09-09T10:59:08.434Z,63.58
2022-09-09T11:02:10.228Z,64.17
2022-09-09T11:04:49.431Z,61.95
2022-09-09T11:07:34.191Z,63.22
2022-09-09T11:10:26.267Z,61.88
2022-09-09T11:12:59.219Z,61.96
2022-09-09T11:15:46.474Z,62.70
2022-09-09T11:18:22.438Z,62.34
2022-09-09T11:20:57.710Z,62.57
2022-09-09T11:23:41.940Z,62.43
2022-09-09T11:26:18.582Z,63.40
2022-09-09T11:29:07.629Z,61.32
2022-09-09T11:32:20.157Z,60.66
2022-09-09T11:35:12.450Z,59.50
2022-09-09T11:38:29.218Z,56.72
2022-09-09T11:41:20.999Z,55.04
2022-09-09T11:43:53.691Z,55.12
2022-09-09T11:46:36.263Z,54.75
2022-09-09T11:49:43.026Z,55.51
2022-09-09T11:52:37.344Z,55.47
2022-09-09T11:55:28.150Z,54.93
2022-09-09T11:58:13.187Z,55.56
2022-09-09T12:00:42.886Z,57.38
2022-09-09T12:03:39.799Z,56.43
2022-09-09T12:06:14.382Z,55.11
2022-09-09T12:08:46.435Z,56.68
2022-09-09T12:11:13.346Z,57.75
2022-09-09T12:13:42.792Z,56.95
2022-09-09T12:16:34.090Z,58.06
2022-09-09T12:19:06.666Z,56.87
2022-09-09T12:21:58.853Z,54.29
2022-09-09T12:24:55.616Z,52.77
2022-09-09T12:27:48.965Z,53.16
2022-09-09T12:30:17.111Z,53.94
2022-09-09T12:32:45.488Z,54.92
2022-09-09T12:35:27.287Z,54.97
2022-09-09T12:38:00.221Z,55.99
2022-09-09T12:40:36.070Z,54.28
2022-09-09T12:43:24.410Z,56.61
2022-09-09T12:46:04.436Z,55.42
2022-09-09T12:48:42.895Z,53.93
2022-09-09T12:51:39.167Z,50.55
2022-09-09T12:54:06.396Z,47.38
2022-09-09T12:56:36.239Z,41.92
2022-09-09T12:59:03.155Z,40.64
2022-09-09T13:01:34.441Z,40.72
2022-09-09T13:04:01.704Z,43.64
2022-09-09T13:06:33.306Z,45.20
2022-09-09T13:09:02.848Z,43.66
2022-09-09T13:11:36.991Z,41.79
2022-09-09T13:14:04.100Z,41.44
2022-09-09T13:16:37.656Z,42.65
2022-09-09T13:19:15.952Z,44.48
2022-09-09T13:21:43.549Z,44.49
2022-09-09T13:24:35.764Z,42.71
2022-09-09T13:27:25.573Z,43.42
2022-09-09T13:29:57.765Z,43.52
2022-09-09T13:32:29.846Z,44.22
2022-09-09T13:35:00.079Z,46.19
2022-09-09T13:37:35.314Z,46.79
2022-09-09T13:40:05.124Z,48.74
2022-09-09T13:42:37.147Z,49.77
2022-09-09T13:45:05.465Z,50.87
2022-09-09T13:47:37.593Z,50.03
2022-09-09T13:50:29.593Z,46.35
2022-09-09T13:52:59.265Z,44.63
2022-09-09T13:55:30.746Z,42.63
2022-09-09T13:58:02.767Z,43.83
2022-09-09T14:00:35.656Z,47.27
2022-09-09T14:03:02.990Z,47.98
2022-09-09T14:05:33.185Z,49.21
2022-09-09T14:08:01.568Z,49.08
2022-09-09T14:10:28.445Z,48.52
2022-09-09T14:12:55.215Z,50.60
2022-09-09T14:15:22.767Z,51.27
2022-09-09T14:17:49.555Z,52.11
2022-09-09T14:20:18.438Z,52.96
2022-09-09T14:22:45.518Z,53.86
2022-09-09T14:25:14.378Z,54.78
2022-09-09T14:27:41.587Z,55.05
2022-09-09T14:30:09.610Z,55.68
2022-09-09T14:32:36.540Z,53.65
2022-09-09T14:35:03.643Z,50.07
2022-09-09T14:37:32.017Z,46.81
2022-09-09T14:39:59.377Z,45.00
2022-09-09T14:42:27.622Z,46.88
2022-09-09T14:44:54.433Z,48.44
2022-09-09T14:47:21.217Z,51.22
2022-09-09T14:49:50.465Z,52.97
2022-09-09T14:52:17.443Z,54.53
2022-09-09T14:54:44.217Z,55.11
2022-09-09T14:57:10.974Z,55.71
2022-09-09T14:59:37.750Z,56.80
2022-09-09T15:02:05.506Z,57.71
2022-09-09T15:04:32.699Z,57.59
2022-09-09T15:06:59.757Z,58.31
2022-09-09T15:09:26.499Z,58.28
2022-09-09T15:11:53.303Z,58.06
2022-09-09T15:14:22.623Z,57.14
2022-09-09T15:16:52.063Z,57.52
2022-09-09T15:19:18.866Z,58.96
2022-09-09T15:21:45.621Z,57.47
2022-09-09T15:24:14.207Z,57.68
2022-09-09T15:26:40.993Z,57.96
2022-09-09T15:29:09.031Z,57.04
2022-09-09T15:31:36.474Z,56.02
2022-09-09T15:34:06.514Z,55.69
2022-09-09T15:36:36.833Z,54.55
2022-09-09T15:39:06.777Z,53.88
2022-09-09T15:41:33.862Z,53.03
2022-09-09T15:44:01.763Z,53.31
2022-09-09T15:46:36.878Z,54.44
2022-09-09T15:49:20.535Z,53.25
2022-09-09T15:51:53.586Z,53.56
2022-09-09T15:54:23.627Z,53.60
2022-09-09T15:56:56.831Z,53.37
2022-09-09T15:59:28.683Z,52.89
2022-09-09T16:01:56.376Z,52.79
2022-09-09T16:04:24.655Z,53.74
2022-09-09T16:07:05.886Z,53.29
2022-09-09T16:09:33.832Z,54.05
2022-09-09T16:12:03.318Z,55.31
2022-09-09T16:14:34.956Z,54.97
2022-09-09T16:17:01.953Z,54.31
2022-09-09T16:19:28.769Z,54.03
2022-09-09T16:21:55.649Z,54.02
2022-09-09T16:24:23.174Z,54.31
2022-09-09T16:26:53.118Z,54.63
2022-09-09T16:29:20.595Z,54.73
2022-09-09T16:31:49.206Z,54.95
2022-09-09T16:34:18.456Z,55.30
2022-09-09T16:36:46.198Z,55.90
2022-09-09T16:39:18.063Z,56.08
2022-09-09T16:41:46.401Z,56.52
2022-09-09T16:44:16.058Z,56.27
2022-09-09T16:46:44.642Z,56.78
2022-09-09T16:49:14.411Z,56.86
2022-09-09T16:51:48.179Z,57.46
2022-09-09T16:54:17.051Z,57.07
2022-09-09T16:56:46.405Z,57.19
2022-09-09T16:59:17.303Z,56.60
2022-09-09T17:01:46.642Z,55.87
2022-09-09T17:04:21.071Z,56.77
2022-09-09T17:06:50.400Z,57.79
2022-09-09T17:09:18.479Z,57.96
2022-09-09T17:11:46.445Z,58.09
2022-09-09T17:14:18.110Z,57.36
2022-09-09T17:16:45.572Z,57.53
2022-09-09T17:19:13.186Z,57.33
2022-09-09T17:22:00.109Z,57.67
2022-09-09T17:24:29.858Z,59.02
2022-09-09T17:26:56.779Z,60.55
2022-09-09T17:29:23.551Z,61.52
2022-09-09T17:31:50.317Z,62.14
2022-09-09T17:34:17.074Z,62.75
2022-09-09T17:36:43.827Z,63.11
2022-09-09T17:39:10.591Z,63.35
2022-09-09T17:41:40.313Z,63.04
2022-09-09T17:44:09.969Z,62.95
2022-09-09T17:46:41.257Z,63.77
2022-09-09T17:49:14.966Z,64.28
2022-09-09T17:51:43.550Z,64.29
2022-09-09T17:54:15.597Z,64.61
2022-09-09T17:56:42.882Z,65.77
2022-09-09T17:59:13.264Z,65.56
2022-09-09T18:01:44.966Z,65.93
2022-09-09T18:04:14.258Z,66.65
2022-09-09T18:06:52.231Z,67.14
2022-09-09T18:09:23.304Z,67.40
2022-09-09T18:11:54.535Z,67.85
2022-09-09T18:14:27.657Z,69.66
2022-09-09T18:16:54.624Z,70.09
2022-09-09T18:19:25.423Z,70.41
2022-09-09T18:21:52.988Z,71.15
2022-09-09T18:24:21.872Z,71.62
2022-09-09T18:26:50.219Z,71.88
2022-09-09T18:29:25.070Z,71.60
2022-09-09T18:31:54.429Z,72.40
2022-09-09T18:34:22.687Z,73.15
2022-09-09T18:36:54.399Z,73.11
2022-09-09T18:39:24.964Z,72.61
2022-09-09T18:41:55.241Z,72.22
2022-09-09T18:44:26.025Z,71.45
2022-09-09T18:46:54.272Z,71.22
2022-09-09T18:49:24.312Z,71.18
2022-09-09T18:51:51.318Z,70.28
2022-09-09T18:54:23.388Z,70.26
2022-09-09T18:56:50.539Z,69.66
2022-09-09T18:59:20.624Z,70.41
2022-09-09T19:01:50.328Z,69.57
2022-09-09T19:04:19.484Z,69.26
2022-09-09T19:06:48.183Z,69.78
2022-09-09T19:09:17.915Z,69.84
2022-09-09T19:11:45.690Z,68.36
2022-09-09T19:14:16.638Z,66.45
2022-09-09T19:16:45.235Z,66.64
2022-09-09T19:19:19.778Z,66.80
2022-09-09T19:21:47.250Z,63.71
2022-09-09T19:24:21.845Z,66.17
2022-09-09T19:26:55.160Z,68.42
2022-09-09T19:29:27.702Z,68.97
2022-09-09T19:34:44.550Z,69.43
2022-09-09T19:37:16.354Z,69.87
2022-09-09T19:39:45.935Z,70.19
2022-09-09T19:42:12.829Z,70.08
2022-09-09T19:44:39.665Z,70.35
2022-09-09T19:47:07.240Z,70.62
2022-09-09T19:49:35.158Z,72.78
2022-09-09T19:52:02.359Z,72.89
2022-09-09T19:54:29.275Z,73.24
2022-09-09T19:56:56.556Z,73.52
2022-09-09T19:59:23.369Z,73.73
2022-09-09T20:01:50.231Z,74.57
2022-09-09T20:04:17.708Z,75.91
2022-09-09T20:06:45.666Z,75.18
2022-09-09T20:09:17.989Z,75.61
2022-09-09T20:11:46.923Z,75.74
2022-09-09T20:14:15.099Z,76.19
2022-09-09T20:16:42.701Z,75.91
2022-09-09T20:19:12.275Z,76.22
2022-09-09T20:21:47.366Z,76.02
2022-09-09T20:24:19.344Z,76.59
2022-09-09T20:26:48.183Z,76.57
2022-09-09T20:29:18.617Z,76.88
2022-09-09T20:31:45.749Z,76.72
2022-09-09T20:34:19.621Z,76.05
2022-09-09T20:36:47.044Z,76.48
2022-09-09T20:39:17.170Z,76.84
2022-09-09T20:41:45.940Z,77.19
2022-09-09T20:44:24.980Z,76.58
2022-09-09T20:47:02.579Z,76.46
2022-09-09T20:49:29.634Z,76.26
2022-09-09T20:51:56.389Z,76.89
2022-09-09T20:54:26.300Z,77.10
2022-09-09T20:56:55.178Z,77.52
2022-09-09T20:59:24.939Z,77.27
2022-09-09T21:01:52.978Z,77.65
2022-09-09T21:04:21.582Z,77.41
2022-09-09T21:06:50.987Z,77.01
2022-09-09T21:09:18.071Z,77.12
2022-09-09T21:11:44.823Z,77.45
2022-09-09T21:14:12.403Z,77.69
2022-09-09T21:16:39.199Z,77.57
2022-09-09T21:19:06.710Z,77.69
2022-09-09T21:21:33.450Z,77.31
2022-09-09T21:24:00.563Z,77.51
2022-09-09T21:26:27.769Z,77.79
2022-09-09T21:28:55.812Z,77.44
2022-09-09T21:31:27.947Z,77.61
2022-09-09T21:33:58.358Z,77.86
2022-09-09T21:36:28.034Z,77.92
2022-09-09T21:38:54.826Z,78.14
2022-09-09T21:41:21.563Z,78.96
2022-09-09T21:43:53.956Z,78.94
2022-09-09T21:46:21.476Z,78.78
2022-09-09T21:48:48.594Z,79.46
2022-09-09T21:51:17.095Z,79.39
2022-09-09T21:53:44.626Z,79.32
2022-09-09T21:56:15.492Z,79.41
2022-09-09T21:58:42.594Z,79.19
2022-09-09T22:01:16.248Z,79.36
2022-09-09T22:03:43.930Z,79.66
2022-09-09T22:06:14.905Z,79.01
2022-09-09T22:08:42.584Z,79.06
2022-09-09T22:11:22.348Z,79.53
2022-09-09T22:13:49.493Z,79.44
2022-09-09T22:16:19.641Z,79.41
2022-09-09T22:18:56.595Z,79.25
2022-09-09T22:21:26.286Z,79.21
2022-09-09T22:23:55.962Z,79.15
2022-09-09T22:26:24.370Z,78.84
2022-09-09T22:28:53.673Z,79.79
2022-09-09T22:31:22.530Z,79.81
2022-09-09T22:33:49.527Z,80.00
2022-09-09T22:36:16.801Z,80.04
2022-09-09T22:38:43.691Z,79.55
2022-09-09T22:41:10.534Z,79.96
2022-09-09T22:43:37.354Z,79.61
2022-09-09T22:46:04.732Z,79.29
2022-09-09T22:48:36.467Z,79.57
2022-09-09T22:51:05.585Z,78.75
2022-09-09T22:53:32.748Z,79.00
2022-09-09T22:56:03.174Z,78.63
2022-09-09T22:58:32.697Z,78.85
2022-09-09T23:01:00.447Z,78.46
2022-09-09T23:03:29.567Z,78.78
2022-09-09T23:06:01.657Z,80.12
2022-09-09T23:08:35.413Z,80.72
2022-09-09T23:11:10.972Z,81.10
2022-09-09T23:13:41.439Z,80.89
2022-09-09T23:16:16.957Z,80.91
2022-09-09T23:18:44.075Z,80.94
2022-09-09T23:21:12.863Z,80.99
2022-09-09T23:23:43.126Z,81.40
2022-09-09T23:26:12.510Z,80.90
2022-09-09T23:28:43.636Z,80.81
2022-09-09T23:31:13.603Z,80.84
2022-09-09T23:33:41.786Z,80.38
2022-09-09T23:36:13.712Z,80.66
2022-09-09T23:38:41.123Z,80.37
2022-09-09T23:41:11.536Z,80.42
2022-09-09T23:43:43.472Z,80.94
2022-09-09T23:46:15.107Z,80.34
2022-09-09T23:48:43.546Z,81.10
2022-09-09T23:51:17.429Z,80.79
2022-09-09T23:53:48.806Z,80.23
2022-09-09T23:56:15.551Z,80.48
2022-09-09T23:58:42.318Z,80.54
